Weather at Gol Airport

Public forecast

Using degrees Celsius for public forecast. Weather courtesy of forecast.io.

Closest aviation weather report (METAR) to Gol Airport

Closest report is Sogndal Airport, Hauk√•sen, 59.8 nm (110.8 km) WNW.

2024/05/22 19:50 (retrieved 39 minutes ago)

ENSG 221950Z 04009KT CAVOK 19/02 Q1017 RMK WIND 3806FT 11026KT

Closest aviation forecast (TAF) to Gol Airport

Closest forecast is Oslo Airport, Gardermoen, 70.5 nm (130.5 km) ESE.

2024/05/22 18:36 (retrieved 2 hours ago)

TAF ENGM 221700Z 2218/2318 14010KT CAVOK BECMG 2223/2301 04008KT BECMG 2309/2311 12012KT TEMPO 2314/2318 SHRA FEW030CB BKN040 PROB30 TEMPO 2314/2318 TS